createdAt,value
2023-02-11T00:02:01.830Z,66.86
2023-02-11T00:04:29.657Z,66.80
2023-02-11T00:06:57.421Z,66.86
2023-02-11T00:09:25.186Z,66.82
2023-02-11T00:11:53.164Z,66.93
2023-02-11T00:14:20.918Z,66.92
2023-02-11T00:16:48.673Z,67.00
2023-02-11T00:19:16.553Z,67.11
2023-02-11T00:21:44.421Z,67.12
2023-02-11T00:24:12.076Z,67.13
2023-02-11T00:26:39.840Z,66.78
2023-02-11T00:29:07.603Z,66.97
2023-02-11T00:31:35.416Z,66.64
2023-02-11T00:34:03.338Z,66.58
2023-02-11T00:36:31.206Z,66.74
2023-02-11T00:38:59.072Z,66.61
2023-02-11T00:41:26.733Z,66.56
2023-02-11T00:43:54.490Z,66.53
2023-02-11T00:46:22.322Z,66.56
2023-02-11T00:48:51.993Z,66.39
2023-02-11T00:51:19.827Z,66.51
2023-02-11T00:53:47.489Z,66.49
2023-02-11T00:56:15.154Z,66.60
2023-02-11T00:58:42.914Z,66.68
2023-02-11T01:01:10.726Z,66.62
2023-02-11T01:03:38.446Z,66.57
2023-02-11T01:06:06.207Z,66.73
2023-02-11T01:08:33.974Z,66.74
2023-02-11T01:11:01.671Z,66.89
2023-02-11T01:13:29.403Z,66.82
2023-02-11T01:15:57.153Z,66.85
2023-02-11T01:18:24.929Z,66.96
2023-02-11T01:20:52.689Z,66.84
2023-02-11T01:23:20.376Z,66.82
2023-02-11T01:25:48.165Z,66.97
2023-02-11T01:28:16.214Z,66.90
2023-02-11T01:30:43.996Z,66.86
2023-02-11T01:33:11.830Z,66.74
2023-02-11T01:35:39.590Z,66.82
2023-02-11T01:38:07.348Z,66.96
2023-02-11T01:40:35.116Z,66.93
2023-02-11T01:43:02.772Z,67.11
2023-02-11T01:45:30.543Z,67.13
2023-02-11T01:47:58.198Z,67.22
2023-02-11T01:50:25.983Z,67.33
2023-02-11T01:52:53.730Z,67.37
2023-02-11T01:55:40.535Z,67.40
2023-02-11T01:58:08.302Z,67.43
2023-02-11T02:00:36.682Z,67.47
2023-02-11T02:03:04.440Z,67.42
2023-02-11T02:05:32.218Z,67.47
2023-02-11T02:07:59.981Z,67.65
2023-02-11T02:10:27.732Z,67.63
2023-02-11T02:12:55.497Z,67.55
2023-02-11T02:15:23.687Z,67.68
2023-02-11T02:17:51.431Z,67.62
2023-02-11T02:20:19.603Z,67.89
2023-02-11T02:22:47.267Z,67.81
2023-02-11T02:25:14.928Z,67.94
2023-02-11T02:27:42.689Z,67.91
2023-02-11T02:30:10.461Z,67.96
2023-02-11T02:32:38.109Z,67.94
2023-02-11T02:35:05.880Z,67.84
2023-02-11T02:37:33.846Z,67.91
2023-02-11T02:40:01.561Z,67.95
2023-02-11T02:42:29.375Z,68.06
2023-02-11T02:44:57.242Z,68.12
2023-02-11T02:47:24.902Z,68.13
2023-02-11T02:49:52.570Z,68.18
2023-02-11T02:52:20.227Z,68.20
2023-02-11T02:54:47.915Z,68.13
2023-02-11T02:57:15.655Z,68.33
2023-02-11T02:59:43.419Z,68.21
2023-02-11T03:02:11.184Z,68.33
2023-02-11T03:04:38.946Z,68.29
2023-02-11T03:07:06.607Z,68.43
2023-02-11T03:09:34.370Z,68.59
2023-02-11T03:12:02.135Z,68.43
2023-02-11T03:14:30.308Z,68.27
2023-02-11T03:16:58.072Z,68.38
2023-02-11T03:19:25.733Z,68.30
2023-02-11T03:21:53.501Z,68.47
2023-02-11T03:24:21.159Z,68.50
2023-02-11T03:26:48.821Z,68.40
2023-02-11T03:29:16.605Z,68.35
2023-02-11T03:31:44.398Z,68.44
2023-02-11T03:34:12.938Z,68.48
2023-02-11T03:36:41.412Z,68.54
2023-02-11T03:39:09.078Z,68.70
2023-02-11T03:41:36.843Z,68.76
2023-02-11T03:44:04.600Z,68.84
2023-02-11T03:46:32.374Z,68.75
2023-02-11T03:49:00.131Z,68.69
2023-02-11T03:51:27.795Z,68.69
2023-02-11T03:53:55.559Z,68.59
2023-02-11T03:56:23.221Z,68.43
2023-02-11T03:58:50.982Z,68.44
2023-02-11T04:01:18.732Z,68.21
2023-02-11T04:03:46.612Z,68.08
2023-02-11T04:06:14.379Z,68.23
2023-02-11T04:08:42.138Z,68.21
2023-02-11T04:11:09.800Z,68.28
2023-02-11T04:13:37.566Z,68.23
2023-02-11T04:16:05.342Z,67.94
2023-02-11T04:18:33.098Z,67.83
2023-02-11T04:21:00.856Z,67.86
2023-02-11T04:23:28.619Z,67.72
2023-02-11T04:25:56.382Z,67.69
2023-02-11T04:28:24.239Z,67.41
2023-02-11T04:30:52.133Z,67.29
2023-02-11T04:33:19.982Z,67.04
2023-02-11T04:35:47.847Z,66.99
2023-02-11T04:38:15.715Z,66.86
2023-02-11T04:40:43.478Z,67.03
2023-02-11T04:43:11.243Z,66.97
2023-02-11T04:45:38.948Z,66.90
2023-02-11T04:48:06.771Z,66.81
2023-02-11T04:50:34.434Z,66.66
2023-02-11T04:53:02.204Z,66.78
2023-02-11T04:55:29.969Z,66.84
2023-02-11T04:57:57.729Z,66.82
2023-02-11T05:00:25.489Z,66.91
2023-02-11T05:02:53.352Z,66.91
2023-02-11T05:05:21.231Z,66.86
2023-02-11T05:07:48.987Z,66.73
2023-02-11T05:10:16.752Z,66.63
2023-02-11T05:12:44.512Z,66.56
2023-02-11T05:15:12.174Z,66.73
2023-02-11T05:17:39.935Z,66.93
2023-02-11T05:20:07.706Z,66.76
2023-02-11T05:22:35.468Z,66.81
2023-02-11T05:25:03.227Z,66.73
2023-02-11T05:27:30.999Z,66.59
2023-02-11T05:29:58.762Z,66.42
2023-02-11T05:32:26.519Z,66.41
2023-02-11T05:34:54.190Z,66.47
2023-02-11T05:37:21.966Z,66.49
2023-02-11T05:39:49.708Z,66.55
2023-02-11T05:42:17.471Z,66.55
2023-02-11T05:44:45.241Z,66.37
2023-02-11T05:47:13.000Z,66.19
2023-02-11T05:49:40.767Z,66.09
2023-02-11T05:52:08.528Z,66.29
2023-02-11T05:54:36.233Z,66.31
2023-02-11T05:57:03.953Z,66.39
2023-02-11T05:59:31.720Z,66.59
2023-02-11T06:01:59.483Z,66.19
2023-02-11T06:04:27.245Z,66.07
2023-02-11T06:06:54.908Z,65.98
2023-02-11T06:09:22.672Z,66.01
2023-02-11T06:11:50.434Z,66.09
2023-02-11T06:14:18.197Z,66.36
2023-02-11T06:16:45.960Z,66.46
2023-02-11T06:19:13.624Z,66.35
2023-02-11T06:21:44.203Z,66.42
2023-02-11T06:24:12.116Z,66.69
2023-02-11T06:26:39.889Z,66.69
2023-02-11T06:29:07.659Z,66.65
2023-02-11T06:31:35.453Z,66.53
2023-02-11T06:34:03.284Z,66.57
2023-02-11T06:36:31.253Z,66.45
2023-02-11T06:38:59.015Z,66.33
2023-02-11T06:41:26.774Z,66.18
2023-02-11T06:43:54.540Z,65.95
2023-02-11T06:46:22.358Z,66.23
2023-02-11T06:48:50.068Z,66.27
2023-02-11T06:51:17.845Z,66.23
2023-02-11T06:53:45.600Z,66.33
2023-02-11T06:56:13.360Z,66.21
2023-02-11T06:58:41.124Z,66.30
2023-02-11T07:01:08.888Z,66.25
2023-02-11T07:03:36.758Z,66.09
2023-02-11T07:06:05.759Z,66.02
2023-02-11T07:08:33.509Z,66.14
2023-02-11T07:11:01.278Z,66.10
2023-02-11T07:13:29.038Z,66.05
2023-02-11T07:15:56.731Z,65.88
2023-02-11T07:18:24.462Z,65.92
2023-02-11T07:20:52.124Z,65.86
2023-02-11T07:23:19.890Z,66.08
2023-02-11T07:25:47.649Z,66.23
2023-02-11T07:28:15.416Z,66.23
2023-02-11T07:30:43.215Z,66.27
2023-02-11T07:33:10.943Z,66.28
2023-02-11T07:35:40.441Z,66.53
2023-02-11T07:38:09.440Z,66.49
2023-02-11T07:40:37.203Z,66.50
2023-02-11T07:43:04.967Z,66.57
2023-02-11T07:45:32.730Z,66.44
2023-02-11T07:48:00.501Z,66.43
2023-02-11T07:50:28.254Z,66.24
2023-02-11T07:52:55.920Z,66.24
2023-02-11T07:55:23.690Z,66.29
2023-02-11T07:57:51.462Z,66.15
2023-02-11T08:00:21.093Z,66.06
2023-02-11T08:02:49.130Z,66.16
2023-02-11T08:05:16.992Z,66.20
2023-02-11T08:07:44.665Z,66.10
2023-02-11T08:10:12.424Z,66.04
2023-02-11T08:12:40.077Z,65.96
2023-02-11T08:15:07.841Z,65.78
2023-02-11T08:17:35.608Z,65.72
2023-02-11T08:20:03.263Z,66.02
2023-02-11T08:22:30.925Z,65.65
2023-02-11T08:24:58.896Z,65.73
2023-02-11T08:27:29.831Z,65.78
2023-02-11T08:29:59.643Z,65.70
2023-02-11T08:32:27.509Z,65.57
2023-02-11T08:34:55.172Z,65.53
2023-02-11T08:37:23.035Z,65.69
2023-02-11T08:39:51.214Z,65.84
2023-02-11T08:42:18.980Z,65.47
2023-02-11T08:44:46.742Z,65.24
2023-02-11T08:47:14.400Z,65.02
2023-02-11T08:49:42.886Z,64.86
2023-02-11T08:52:10.645Z,65.00
2023-02-11T08:54:38.308Z,65.05
2023-02-11T08:57:06.069Z,64.71
2023-02-11T08:59:33.837Z,64.52
2023-02-11T09:02:01.625Z,64.96
2023-02-11T09:04:29.378Z,64.61
2023-02-11T09:06:57.022Z,63.97
2023-02-11T09:09:24.786Z,64.01
2023-02-11T09:11:57.384Z,63.87
2023-02-11T09:14:25.126Z,63.91
2023-02-11T09:16:53.522Z,63.95
2023-02-11T09:19:21.376Z,63.76
2023-02-11T09:21:49.377Z,63.57
2023-02-11T09:24:17.110Z,63.55
2023-02-11T09:26:44.872Z,63.67
2023-02-11T09:29:12.628Z,64.07
2023-02-11T09:31:40.490Z,63.75
2023-02-11T09:34:08.672Z,63.24
2023-02-11T09:36:37.581Z,62.41
2023-02-11T09:39:10.864Z,62.03
2023-02-11T09:41:39.136Z,61.80
2023-02-11T09:44:06.897Z,62.27
2023-02-11T09:46:34.594Z,61.96
2023-02-11T09:49:02.425Z,61.20
2023-02-11T09:51:30.087Z,60.60
2023-02-11T09:54:00.094Z,60.26
2023-02-11T09:56:28.484Z,60.66
2023-02-11T09:58:56.252Z,60.77
2023-02-11T10:01:23.951Z,61.25
2023-02-11T10:03:51.677Z,61.11
2023-02-11T10:06:20.267Z,60.96
2023-02-11T10:08:48.033Z,60.69
2023-02-11T10:11:29.686Z,61.13
2023-02-11T10:13:58.910Z,61.06
2023-02-11T10:16:26.573Z,61.00
2023-02-11T10:18:54.340Z,61.07
2023-02-11T10:21:22.017Z,60.88
2023-02-11T10:23:49.760Z,61.00
2023-02-11T10:26:17.528Z,60.93
2023-02-11T10:28:45.249Z,61.03
2023-02-11T10:31:15.982Z,61.18
2023-02-11T10:33:43.889Z,61.40
2023-02-11T10:36:11.550Z,61.23
2023-02-11T10:38:39.518Z,61.24
2023-02-11T10:41:07.389Z,60.84
2023-02-11T10:43:35.149Z,61.02
2023-02-11T10:46:02.963Z,60.76
2023-02-11T10:48:30.782Z,60.77
2023-02-11T10:50:58.479Z,60.69
2023-02-11T10:53:26.511Z,60.50
2023-02-11T10:55:54.183Z,60.55
2023-02-11T10:58:21.938Z,60.70
2023-02-11T11:00:49.925Z,60.40
2023-02-11T11:03:17.876Z,60.34
2023-02-11T11:05:45.537Z,60.23
2023-02-11T11:08:13.521Z,60.14
2023-02-11T11:10:44.146Z,59.31
2023-02-11T11:13:11.900Z,59.88
2023-02-11T11:15:39.586Z,59.48
2023-02-11T11:18:20.510Z,59.08
2023-02-11T11:20:49.848Z,58.44
2023-02-11T11:23:17.803Z,59.20
2023-02-11T11:25:46.280Z,59.12
2023-02-11T11:28:14.007Z,59.45
2023-02-11T11:30:41.849Z,58.97
2023-02-11T11:33:09.575Z,59.17
2023-02-11T11:35:37.236Z,59.62
2023-02-11T11:38:05.246Z,59.69
2023-02-11T11:40:32.972Z,59.43
2023-02-11T11:43:00.736Z,59.62
2023-02-11T11:45:28.497Z,59.17
2023-02-11T11:47:58.518Z,58.91
2023-02-11T11:50:26.684Z,59.33
2023-02-11T11:52:54.341Z,58.93
2023-02-11T11:55:22.111Z,58.82
2023-02-11T11:57:49.870Z,58.46
2023-02-11T12:00:17.744Z,58.76
2023-02-11T12:02:45.529Z,59.47
2023-02-11T12:05:13.374Z,59.47
2023-02-11T12:07:41.338Z,59.47
2023-02-11T12:10:09.098Z,59.45
2023-02-11T12:12:36.864Z,59.26
2023-02-11T12:15:04.727Z,59.17
2023-02-11T12:17:32.389Z,59.46
2023-02-11T12:20:00.150Z,59.52
2023-02-11T12:22:27.918Z,59.35
2023-02-11T12:24:55.580Z,59.42
2023-02-11T12:27:23.343Z,59.46
2023-02-11T12:29:51.115Z,59.33
2023-02-11T12:32:18.807Z,59.40
2023-02-11T12:34:46.536Z,59.64
2023-02-11T12:37:14.196Z,59.06
2023-02-11T12:39:41.959Z,59.37
2023-02-11T12:42:28.583Z,59.32
2023-02-11T12:44:56.329Z,59.62
2023-02-11T12:47:24.196Z,59.75
2023-02-11T12:49:51.860Z,59.85
2023-02-11T12:52:19.519Z,59.64
2023-02-11T12:54:47.306Z,59.62
2023-02-11T12:57:15.048Z,59.82
2023-02-11T12:59:42.810Z,59.56
2023-02-11T13:02:10.502Z,59.82
2023-02-11T13:04:38.134Z,60.14
2023-02-11T13:07:06.615Z,60.09
2023-02-11T13:09:34.278Z,60.14
2023-02-11T13:12:21.918Z,60.27
2023-02-11T13:14:49.572Z,60.34
2023-02-11T13:17:17.556Z,60.09
2023-02-11T13:19:45.304Z,60.41
2023-02-11T13:22:13.067Z,60.47
2023-02-11T13:24:40.838Z,60.23
2023-02-11T13:27:08.496Z,60.36
2023-02-11T13:29:36.266Z,60.44
2023-02-11T13:32:04.075Z,60.40
2023-02-11T13:34:31.728Z,60.50
2023-02-11T13:36:59.447Z,60.55
2023-02-11T13:39:27.106Z,60.67
2023-02-11T13:41:54.872Z,60.82
2023-02-11T13:44:22.956Z,60.50
2023-02-11T13:46:50.919Z,60.83
2023-02-11T13:49:18.575Z,61.31
2023-02-11T13:51:46.344Z,61.17
2023-02-11T13:54:14.609Z,61.41
2023-02-11T13:56:46.469Z,61.76
2023-02-11T13:59:14.231Z,61.99
2023-02-11T14:01:42.741Z,61.99
2023-02-11T14:04:29.524Z,61.98
2023-02-11T14:07:15.820Z,62.25
2023-02-11T14:09:43.587Z,62.32
2023-02-11T14:12:11.350Z,62.00
2023-02-11T14:14:39.012Z,62.40
2023-02-11T14:17:06.720Z,62.58
2023-02-11T14:19:34.542Z,62.83
2023-02-11T14:22:02.509Z,63.20
2023-02-11T14:24:31.199Z,63.53
2023-02-11T14:26:58.857Z,64.27
2023-02-11T14:29:26.520Z,64.61
2023-02-11T14:31:54.407Z,65.12
2023-02-11T14:34:22.252Z,65.67
2023-02-11T14:36:50.016Z,67.09
2023-02-11T14:39:17.679Z,68.33
2023-02-11T14:41:45.645Z,69.36
2023-02-11T14:44:13.410Z,70.09
2023-02-11T14:46:41.102Z,70.91
2023-02-11T14:49:09.346Z,71.62
2023-02-11T14:51:37.112Z,73.18
2023-02-11T14:54:04.879Z,73.28
2023-02-11T14:56:34.789Z,73.82
2023-02-11T14:59:03.064Z,73.97
2023-02-11T15:01:32.586Z,74.77
2023-02-11T15:04:02.808Z,74.17
2023-02-11T15:06:30.554Z,74.73
2023-02-11T15:09:01.023Z,73.99
2023-02-11T15:11:28.679Z,74.83
2023-02-11T15:13:56.612Z,75.20
2023-02-11T15:16:24.397Z,75.07
2023-02-11T15:18:52.246Z,74.29
2023-02-11T15:21:19.904Z,74.79
2023-02-11T15:23:47.668Z,74.83
2023-02-11T15:26:15.534Z,75.48
2023-02-11T15:28:43.198Z,75.21
2023-02-11T15:31:10.919Z,75.79
2023-02-11T15:33:38.703Z,76.35
2023-02-11T15:36:06.692Z,76.29
2023-02-11T15:38:34.457Z,76.28
2023-02-11T15:41:02.319Z,76.30
2023-02-11T15:43:30.086Z,76.58
2023-02-11T15:45:57.781Z,76.31
2023-02-11T15:48:27.158Z,76.35
2023-02-11T15:50:55.118Z,76.21
2023-02-11T15:53:23.395Z,75.92
2023-02-11T15:55:51.159Z,76.60
2023-02-11T15:58:18.922Z,76.87
2023-02-11T16:00:46.691Z,76.78
2023-02-11T16:03:14.449Z,75.99
2023-02-11T16:05:42.216Z,76.62
2023-02-11T16:08:09.885Z,76.62
2023-02-11T16:10:37.638Z,76.55
2023-02-11T16:13:05.427Z,77.02
2023-02-11T16:15:33.169Z,77.56
2023-02-11T16:18:00.930Z,77.17
2023-02-11T16:20:28.697Z,77.18
2023-02-11T16:22:56.459Z,77.51
2023-02-11T16:25:24.227Z,77.06
2023-02-11T16:27:51.987Z,77.31
2023-02-11T16:30:19.646Z,77.22
2023-02-11T16:32:47.412Z,77.59
2023-02-11T16:35:15.175Z,77.83
2023-02-11T16:37:42.846Z,77.98
2023-02-11T16:40:12.031Z,78.20
2023-02-11T16:42:40.002Z,78.10
2023-02-11T16:45:07.904Z,78.04
2023-02-11T16:47:35.734Z,78.25
2023-02-11T16:50:04.736Z,78.45
2023-02-11T16:52:32.496Z,78.43
2023-02-11T16:55:00.254Z,78.46
2023-02-11T16:57:30.138Z,78.59
2023-02-11T16:59:59.574Z,78.92
2023-02-11T17:02:27.336Z,78.72
2023-02-11T17:04:55.225Z,79.07
2023-02-11T17:07:23.067Z,78.65
2023-02-11T17:09:51.982Z,78.95
2023-02-11T17:12:19.721Z,78.99
2023-02-11T17:14:47.484Z,79.13
2023-02-11T17:17:15.144Z,79.12
2023-02-11T17:19:42.779Z,78.50
2023-02-11T17:22:10.467Z,78.86
2023-02-11T17:24:38.234Z,78.94
2023-02-11T17:27:05.891Z,78.96
2023-02-11T17:29:33.552Z,79.00
2023-02-11T17:32:01.390Z,78.57
2023-02-11T17:34:29.593Z,79.42
2023-02-11T17:36:58.902Z,79.45
2023-02-11T17:39:26.661Z,79.11
2023-02-11T17:41:54.422Z,78.73
2023-02-11T17:44:22.188Z,79.04
2023-02-11T17:46:49.947Z,79.30
2023-02-11T17:49:17.818Z,79.44
2023-02-11T17:51:45.584Z,79.37
2023-02-11T17:54:13.354Z,79.17
2023-02-11T17:56:41.108Z,79.31
2023-02-11T17:59:08.804Z,79.33
2023-02-11T18:01:36.535Z,79.92
2023-02-11T18:04:04.714Z,79.87
2023-02-11T18:06:34.011Z,80.06
2023-02-11T18:09:04.540Z,80.55
2023-02-11T18:11:32.301Z,80.19
2023-02-11T18:13:59.958Z,80.61
2023-02-11T18:16:29.623Z,81.06
2023-02-11T18:18:57.454Z,81.22
2023-02-11T18:21:25.219Z,80.74
2023-02-11T18:23:52.961Z,81.37
2023-02-11T18:26:20.633Z,81.61
2023-02-11T18:28:48.606Z,81.69
2023-02-11T18:31:16.455Z,81.87
2023-02-11T18:33:44.431Z,81.62
2023-02-11T18:36:12.090Z,81.53
2023-02-11T18:38:39.755Z,82.28
2023-02-11T18:41:07.625Z,82.15
2023-02-11T18:43:35.402Z,81.79
2023-02-11T18:46:03.214Z,81.98
2023-02-11T18:48:31.023Z,82.16
2023-02-11T18:50:58.779Z,82.35
2023-02-11T18:53:26.453Z,82.11
2023-02-11T18:55:54.554Z,82.39
2023-02-11T18:58:22.798Z,82.48
2023-02-11T19:00:50.585Z,82.33
2023-02-11T19:03:18.522Z,82.68
2023-02-11T19:05:46.284Z,82.95
2023-02-11T19:08:14.049Z,83.03
2023-02-11T19:10:42.015Z,83.04
2023-02-11T19:13:09.799Z,82.85
2023-02-11T19:15:37.645Z,82.70
2023-02-11T19:18:05.307Z,82.58
2023-02-11T19:20:33.688Z,83.18
2023-02-11T19:23:01.457Z,83.07
2023-02-11T19:25:29.417Z,83.21
2023-02-11T19:27:57.246Z,82.97
2023-02-11T19:30:25.051Z,82.74
2023-02-11T19:32:54.347Z,83.21
2023-02-11T19:35:24.475Z,83.35
2023-02-11T19:37:52.273Z,82.96
2023-02-11T19:40:21.427Z,83.19
2023-02-11T19:42:49.089Z,82.51
2023-02-11T19:45:16.751Z,82.81
2023-02-11T19:47:44.619Z,83.02
2023-02-11T19:50:12.278Z,83.16
2023-02-11T19:52:40.781Z,82.86
2023-02-11T19:55:08.522Z,82.96
2023-02-11T19:57:36.184Z,83.01
2023-02-11T20:00:03.961Z,82.89
2023-02-11T20:02:31.952Z,82.95
2023-02-11T20:04:59.679Z,83.26
2023-02-11T20:07:27.444Z,83.14
2023-02-11T20:09:55.209Z,83.27
2023-02-11T20:12:22.854Z,83.52
2023-02-11T20:14:50.531Z,83.39
2023-02-11T20:17:18.296Z,83.41
2023-02-11T20:19:46.068Z,83.52
2023-02-11T20:22:13.925Z,83.54
2023-02-11T20:24:41.692Z,83.70
2023-02-11T20:27:11.707Z,83.64
2023-02-11T20:29:39.467Z,83.55
2023-02-11T20:32:07.403Z,83.88
2023-02-11T20:34:35.306Z,83.58
2023-02-11T20:37:04.296Z,83.67
2023-02-11T20:39:32.055Z,83.60
2023-02-11T20:41:59.821Z,84.12
2023-02-11T20:44:27.584Z,84.07
2023-02-11T20:46:55.869Z,84.06
2023-02-11T20:49:23.966Z,84.16
2023-02-11T20:51:53.953Z,83.99
2023-02-11T20:54:22.125Z,84.24
2023-02-11T20:56:51.360Z,83.86
2023-02-11T20:59:19.496Z,84.15
2023-02-11T21:01:47.322Z,83.76
2023-02-11T21:04:15.438Z,83.63
2023-02-11T21:06:43.096Z,83.53
2023-02-11T21:09:10.872Z,83.14
2023-02-11T21:11:38.623Z,83.19
2023-02-11T21:14:06.384Z,83.37
2023-02-11T21:16:34.149Z,83.71
2023-02-11T21:19:03.038Z,83.68
2023-02-11T21:21:30.804Z,83.42
2023-02-11T21:23:58.980Z,83.53
2023-02-11T21:26:26.743Z,83.63
2023-02-11T21:28:55.429Z,83.52
2023-02-11T21:31:23.504Z,83.63
2023-02-11T21:33:51.367Z,83.40
2023-02-11T21:36:19.131Z,83.47
2023-02-11T21:38:46.901Z,83.82
2023-02-11T21:41:14.564Z,84.00
2023-02-11T21:43:42.222Z,84.29
2023-02-11T21:46:10.094Z,84.10
2023-02-11T21:48:37.848Z,83.87
2023-02-11T21:51:05.818Z,83.69
2023-02-11T21:53:33.483Z,83.87
2023-02-11T21:56:01.143Z,83.83
2023-02-11T21:58:28.814Z,84.11
2023-02-11T22:00:56.608Z,84.12
2023-02-11T22:03:24.438Z,84.15
2023-02-11T22:05:52.292Z,84.17
2023-02-11T22:08:20.364Z,83.80
2023-02-11T22:10:48.134Z,84.07
2023-02-11T22:13:15.901Z,84.35
2023-02-11T22:15:43.664Z,83.96
2023-02-11T22:18:11.335Z,83.96
2023-02-11T22:20:38.965Z,84.45
2023-02-11T22:23:06.655Z,84.29
2023-02-11T22:25:34.311Z,84.28
2023-02-11T22:28:01.984Z,84.53
2023-02-11T22:30:29.730Z,84.56
2023-02-11T22:32:57.393Z,84.02
2023-02-11T22:35:25.038Z,83.87
2023-02-11T22:37:52.713Z,84.06
2023-02-11T22:40:20.481Z,84.56
2023-02-11T22:42:48.141Z,84.67
2023-02-11T22:45:15.803Z,84.20
2023-02-11T22:47:43.560Z,84.28
2023-02-11T22:50:11.231Z,84.53
2023-02-11T22:52:38.898Z,84.53
2023-02-11T22:55:07.263Z,84.71
2023-02-11T22:57:34.921Z,84.83
2023-02-11T23:00:02.694Z,84.53
2023-02-11T23:02:30.396Z,85.23
2023-02-11T23:04:59.544Z,85.17
2023-02-11T23:07:27.310Z,85.27
2023-02-11T23:09:55.073Z,84.87
2023-02-11T23:12:22.841Z,84.97
2023-02-11T23:14:50.502Z,84.50
2023-02-11T23:17:19.801Z,84.54
2023-02-11T23:19:47.475Z,84.79
2023-02-11T23:22:15.124Z,85.09
2023-02-11T23:24:42.886Z,85.35
2023-02-11T23:27:10.550Z,84.82
2023-02-11T23:29:38.210Z,84.88
2023-02-11T23:32:05.900Z,84.37
2023-02-11T23:34:33.638Z,85.06
2023-02-11T23:37:01.614Z,84.95
2023-02-11T23:39:29.369Z,84.76
2023-02-11T23:41:59.181Z,85.26
2023-02-11T23:44:26.847Z,84.78
2023-02-11T23:46:54.611Z,84.72
2023-02-11T23:49:22.375Z,85.21
2023-02-11T23:51:50.141Z,84.96
2023-02-11T23:54:17.802Z,85.20
2023-02-11T23:56:46.380Z,85.25
2023-02-11T23:59:14.061Z,85.10
